St Lucie County International Airport
KFPR : now visible

Airfield :











YOU CAN JOIN US ON...

 
LOGIN :

Register | Disclaimer

   EN    FR    IT 

 









Legend :    VFR   Marginal VFR   IFR   Intensive IFR   Very Intensive IFR
Visi :
Ceiling :
>= 8 km
>= 3000ft
5 to 8 km
1000 to 3000 ft
1500m to 5 km
500 to 1000 ft
800 to 1500m
200 to 500 ft
< 800m
< 200 ft
Symbols :   Thunderstorms  Fog  Heavy snow  Heavy precipitations  Wind > 20 kt






- Airport Elevation : 24 ft
- IATA code : FPR


KFPR - St Lucie County International

CURRENT METAR :
  • 231053Z 00000KT 10SM FEW021 BKN070 22/21 A2996 RMK AO2 SLP146 T02170206

EXPIRED METARs :
  • 230953Z AUTO 00000KT 10SM CLR 22/21 A2996 RMK AO2 SLP143 T02220211
  • 230853Z AUTO 01004KT 10SM CLR 23/21 A2994 RMK AO2 SLP138 T02280211 56013

TAF KFPR
Valid from the 23 at 06:00 until the 24 at 06:00 UTC


230522Z 2306/2406 VRB03KT P6SM VCSH SCT030 SCT250
FM231400 03006KT P6SM VCSH FEW025 SCT250
FM232100 06008KT P6SM VCSH SCT030 SCT250
FM240100 06007KT P6SM SCT040 SCT100
KZMA FIR / North America



MET'MAP, your aeronautical weather chart ! - Copyright ORBIFLY December 2007 - Disclaimer

ORBIFLY MET'MAP TEAM :

Programming & Development : Alexandra Zaïnal
Concept & original design : Baudouin d'Aumeries
Assistance for programming : Marc-Olivier Méhu
Technical & hardware support : Manuel Goepfert

Contact : metmap@orbifly.com




SOURCES & CREDITS :

   NOAA       Earth
Advisory